• Join FlightAware (Why Join?)
  • Login
  • US Flag 
03:36AM EDT


 

Airport Tracker/Info


-or-


 

Live Flight TrackerFlight Track Log ✈ UAL5915 ✈ 11-Sep-2013 ✈ KMOB - KORD

Flight Track Log - Related Links

Times and Time Zones

All times are in EDT time to prevent confusion due to time zone crossing. See the UAL5915 flight status page for this flight to view local times or setup timezone preferences in your user account.

Time Position Orientation Groundspeed Altitude Reporting Facility
EDT Latitude Longitude Course Direction KTS MPH feet Rate Location/Type
02:34PM 30.7172 -88.1506 North 233 268 6,500  Level Houston Center
02:35PM 31.0733 -88.2329 North  Level Estimated
02:35PM 30.7836 -88.1278 16° North 244 281 9,000  Level Houston Center
02:36PM 31.1556 -88.1764 30° Northeast  Level FlightAware Approximate
02:36PM 30.8578 -88.1028 16° North 274 315 10,300  Level Houston Center
02:37PM 31.2510 -88.1743 23° Northeast  Level Estimated
02:37PM 30.9528 -88.0306 33° Northeast 346 398 11,300  Level Houston Center
02:38PM 31.3620 -88.1719 North  Level Estimated
02:38PM 31.0378 -87.9664 33° Northeast 365 420 12,400  Level Houston Center
02:39PM 31.4730 -88.1694 North  Level Estimated
02:39PM 31.1239 -87.8992 34° Northeast 374 430 13,600  Level Houston Center
02:40PM 31.2111 -87.8311 34° Northeast 378 435 14,800 1,200 Climbing Houston Center
02:41PM 31.3325 -87.7942 15° North 387 445 16,200 1,200 Climbing Houston Center
02:42PM 31.4378 -87.7803 North 384 442 17,300 960 Climbing Houston Center
02:43PM 31.5428 -87.7661 North 383 441 18,300 1,020 Climbing Houston Center
02:44PM 31.6492 -87.7514 North 385 443 19,500 1,140 Climbing Houston Center
02:45PM 31.7564 -87.7383 North 388 447 20,700 1,200 Climbing Houston Center
02:46PM 31.8858 -87.7203 North 392 451 22,100 1,200 Climbing Houston Center
02:47PM 31.9933 -87.7067 North 393 452 23,300 1,140 Climbing Houston Center
02:48PM 32.1019 -87.6922 North 394 453 24,500 960 Climbing Houston Center
02:49PM 32.2106 -87.6767 North 393 452 25,300 600 Climbing Houston Center
02:50PM 32.3231 -87.6622 North 404 465 25,800 540 Climbing Houston Center
02:51PM 32.4606 -87.6292 11° North 431 496 26,500 480 Climbing Houston Center
02:52PM 32.5644 -87.5706 25° Northeast 416 479 26,900 420 Climbing Atlanta Center
02:53PM 32.6706 -87.5081 26° Northeast 421 484 27,400 480 Climbing Atlanta Center
02:54PM 32.7808 -87.4408 27° Northeast 431 496 27,900 480 Climbing Atlanta Center
02:55PM 32.8914 -87.3733 27° Northeast 431 496 28,400 480 Climbing Atlanta Center
02:56PM 32.9994 -87.3083 27° Northeast 436 502 28,900 300 Climbing Atlanta Center
02:57PM 33.1203 -87.2333 27° Northeast 443 510 29,000  Climbing Atlanta Center
02:58PM 33.2328 -87.1656 27° Northeast 443 510 29,000  Level Atlanta Center
02:59PM 33.3472 -87.0950 27° Northeast 448 516 29,000  Level Atlanta Center
03:00PM 33.4617 -87.0269 26° Northeast 448 516 29,000  Level Atlanta Center
03:01PM 33.5697 -86.9608 27° Northeast 448 516 29,000  Level Atlanta Center
03:02PM 33.6839 -86.9022 23° Northeast 448 516 29,000  Level Atlanta Center
03:03PM 33.8053 -86.8864 North 438 504 29,000  Level Atlanta Center
03:04PM 33.9306 -86.8756 North 438 504 29,000  Level Atlanta Center
03:05PM 34.0581 -86.8672 North 444 511 29,000  Level Atlanta Center
03:06PM 34.1794 -86.8536 North 444 511 29,000  Level Atlanta Center
03:07PM 34.3050 -86.8453 North 444 511 29,000  Level Atlanta Center
03:08PM 34.4325 -86.8342 North 444 511 29,000  Level Atlanta Center
03:09PM 34.5539 -86.8231 North 444 511 29,000  Level Atlanta Center
03:10PM 34.6792 -86.8122 North 444 511 29,000  Level Atlanta Center
03:11PM 34.8025 -86.8011 North 444 511 29,000  Level Atlanta Center
03:12PM 34.9261 -86.7900 North 444 511 29,000  Level Atlanta Center
03:13PM 35.0514 -86.7789 North 444 511 29,000  Level Atlanta Center
03:14PM 35.1747 -86.7703 North 444 511 29,000  Level Atlanta Center
03:15PM 35.2514 -86.7592 North 453 521 29,000  Level Memphis Center
03:16PM 35.3742 -86.7489 North 453 521 29,000  Level Memphis Center
03:17PM 35.4947 -86.7386 North 446 513 29,000  Level Memphis Center
03:18PM 35.6217 -86.7278 North 446 513 29,000  Level Memphis Center
03:19PM 35.7569 -86.7167 North 441 507 29,000  Level Memphis Center
03:20PM 35.8797 -86.7061 North 441 507 29,000  Level Memphis Center
03:21PM 35.9956 -86.7472 344° North 435 501 29,000  Level Memphis Center
03:22PM 36.0658 -86.8778 304° West 417 480 29,000  Level Memphis Center
03:23PM 36.1342 -87.0083 303° West 437 503 29,000  Level Memphis Center
03:24PM 36.2044 -87.1392 304° West 456 525 29,000  Level Memphis Center
03:25PM 36.2678 -87.2525 305° West 456 525 29,000  Level Memphis Center
03:26PM 36.3375 -87.3814 304° West 456 525 29,000  Level Memphis Center
03:27PM 36.4072 -87.5103 304° West 451 519 29,000  Level Memphis Center
03:28PM 36.4769 -87.6369 304° West 451 519 29,000  Level Memphis Center
03:29PM 36.5853 -87.7339 324° Northwest 440 506 29,000  Level Memphis Center
03:30PM 36.7122 -87.7222 North 411 473 29,000  Level Memphis Center
03:32PM 36.9450 -87.5967 23° Northeast 457 526 29,000  Level Indianapolis Center
03:33PM 37.0647 -87.5353 22° Northeast 459 528 29,000  Level Indianapolis Center
03:34PM 37.1836 -87.4731 23° Northeast 458 527 29,000  Level Indianapolis Center
03:35PM 37.3011 -87.4125 22° Northeast 453 521 29,000  Level Indianapolis Center
03:36PM 37.4197 -87.3517 22° Northeast 453 521 29,000  Level Indianapolis Center
03:37PM 37.5375 -87.2894 23° Northeast 454 522 29,000  Level Indianapolis Center
03:38PM 37.6558 -87.2297 22° Northeast 454 522 29,000  Level Indianapolis Center
03:39PM 37.7786 -87.1647 23° Northeast 456 525 29,000  Level Indianapolis Center
03:40PM 37.8967 -87.1019 23° Northeast 458 527 29,000  Level Indianapolis Center
03:41PM 38.0136 -87.0403 23° Northeast 457 526 29,000  Level Indianapolis Center
03:42PM 38.1533 -86.9650 23° Northeast 458 527 29,000  Level Indianapolis Center
03:44PM 38.2697 -86.9022 23° Northeast 462 532 29,000  Level Indianapolis Center
03:45PM 38.3872 -86.8403 22° Northeast 465 535 29,000  Level Indianapolis Center
03:46PM 38.5047 -86.7786 22° Northeast 461 531 29,000  Level Indianapolis Center
03:47PM 38.6231 -86.7150 23° Northeast 462 532 29,000  Level Indianapolis Center
03:48PM 38.7658 -86.6386 23° Northeast 462 532 29,000  Level Indianapolis Center
03:49PM 38.8839 -86.5736 23° Northeast 463 533 29,000  Level Indianapolis Center
03:50PM 39.0031 -86.5094 23° Northeast 465 535 29,000  Level Indianapolis Center
03:51PM 39.1222 -86.4450 23° Northeast 466 536 29,000  Level Indianapolis Center
03:52PM 39.2431 -86.3789 23° Northeast 471 542 29,000 -60 Level Indianapolis Center
03:53PM 39.3633 -86.3131 23° Northeast 471 542 28,900 -300 Descending Indianapolis Center
03:54PM 39.5056 -86.2342 23° Northeast 468 539 28,400 -540 Descending Indianapolis Center
03:55PM 39.6231 -86.1681 23° Northeast 468 539 27,900 -540 Descending Indianapolis Center
03:56PM 39.7408 -86.1022 23° Northeast 474 545 27,400 -540 Descending Indianapolis Center
03:57PM 39.8600 -86.0367 23° Northeast 474 545 26,900 -540 Descending Indianapolis Center
03:58PM 40.0025 -85.9572 23° Northeast 469 540 26,300 -480 Descending Indianapolis Center
03:59PM 40.1206 -85.8908 23° Northeast 465 535 26,000 -180 Descending Indianapolis Center
04:00PM 40.2375 -85.8244 23° Northeast 462 532 26,000 -60 Level Indianapolis Center
04:01PM 40.3464 -85.7639 23° Northeast 434 499 25,900 -240 Descending Indianapolis Center
04:02PM 40.5014 -85.6886 20° North 428 493 25,500 -360 Descending Chicago Center
04:03PM 40.6128 -85.7228 347° North 411 473 25,100 -360 Descending Chicago Center
04:04PM 40.7192 -85.8122 328° Northwest 400 460 24,800 -300 Descending Chicago Center
04:06PM 40.7875 -85.9239 309° West 392 451 24,500 -480 Descending Chicago Center
04:07PM 40.8569 -86.0367 309° West 394 453 23,900 -660 Descending Chicago Center
04:08PM 40.9269 -86.1522 309° West 398 458 23,200 -660 Descending Chicago Center
04:09PM 40.9964 -86.2650 309° West 397 457 22,600 -600 Descending Chicago Center
04:10PM 41.0625 -86.3756 308° West 392 451 22,000 -660 Descending Chicago Center
04:11PM 41.1394 -86.5036 309° West 381 438 21,300 -720 Descending Chicago Center
04:12PM 41.2067 -86.6131 309° West 379 436 20,600 -660 Descending Chicago Center
04:13PM 41.2681 -86.7183 308° West 366 421 20,000 -600 Descending Chicago Center
04:14PM 41.3297 -86.8211 309° West 363 418 19,400 -1,020 Descending Chicago Center
04:15PM 41.3906 -86.9222 309° West 358 412 17,900 -1,500 Descending Chicago Center
04:16PM 41.4600 -87.0383 309° West 343 395 16,300 -1,800 Descending Chicago Center
04:17PM 41.5067 -87.1286 305° West 306 352 14,300 -1,740 Descending Chicago Center
04:18PM 41.5622 -87.2006 316° Northwest 293 337 12,800 -1,260 Descending Chicago Center
04:19PM 41.6044 -87.2772 306° West 261 300 11,700 -1,500 Descending Chicago Center
04:20PM 41.6731 -87.3108 340° North 264 304 9,700 -1,800 Descending Chicago Center
04:21PM 41.7044 -87.4089 293° West 243 280 8,000 -1,320 Descending Chicago Center
04:22PM 41.7231 -87.4925 287° West 246 283 7,000 -540 Descending Chicago Center
04:23PM 41.7883 -87.5375 333° Northwest 267 307 7,000 -360 Level Chicago Center
04:24PM 41.8536 -87.5839 332° Northwest 270 311 6,300 -1,200 Descending Chicago Center
04:25PM 41.9272 -87.6419 330° Northwest 263 303 4,600 -1,500 Descending Chicago Center
04:26PM 41.9594 -87.7133 301° West 241 277 3,300 -1,260 Descending Chicago Center
04:27PM 41.9686 -87.7825 280° West 212 244 2,100 -900 Descending Chicago Center
04:28PM 41.9700 -87.8322 272° West 167 192 1,500 -480 Descending Chicago Center
04:29PM 41.9703 -87.8872 270° West 154 177 1,200 -300 Descending Chicago Center